sensor_id;sensor_type;location;lat;lon;timestamp;P1;durP1;ratioP1;P2;durP2;ratioP2
3249;SDS011;1637;42.020;23.992;2023-02-12T00:00:59;162.67;;;51.07;;
3249;SDS011;1637;42.020;23.992;2023-02-12T00:03:26;188.40;;;59.07;;
3249;SDS011;1637;42.020;23.992;2023-02-12T00:05:53;159.37;;;53.20;;
3249;SDS011;1637;42.020;23.992;2023-02-12T00:08:20;150.57;;;50.13;;
3249;SDS011;1637;42.020;23.992;2023-02-12T00:10:48;143.90;;;48.43;;
3249;SDS011;1637;42.020;23.992;2023-02-12T00:13:15;117.33;;;43.00;;
3249;SDS011;1637;42.020;23.992;2023-02-12T00:15:42;108.03;;;36.20;;
3249;SDS011;1637;42.020;23.992;2023-02-12T00:18:09;103.20;;;34.27;;
3249;SDS011;1637;42.020;23.992;2023-02-12T00:20:36;106.90;;;38.30;;
3249;SDS011;1637;42.020;23.992;2023-02-12T00:23:04;101.20;;;35.50;;
3249;SDS011;1637;42.020;23.992;2023-02-12T00:25:31;103.17;;;36.60;;
3249;SDS011;1637;42.020;23.992;2023-02-12T00:27:59;103.17;;;35.93;;
3249;SDS011;1637;42.020;23.992;2023-02-12T00:30:26;91.23;;;36.03;;
3249;SDS011;1637;42.020;23.992;2023-02-12T00:32:53;79.90;;;32.20;;
3249;SDS011;1637;42.020;23.992;2023-02-12T00:35:20;77.20;;;28.30;;
3249;SDS011;1637;42.020;23.992;2023-02-12T00:37:47;76.47;;;29.70;;
3249;SDS011;1637;42.020;23.992;2023-02-12T00:40:13;56.73;;;22.10;;
3249;SDS011;1637;42.020;23.992;2023-02-12T00:42:40;83.40;;;29.07;;
3249;SDS011;1637;42.020;23.992;2023-02-12T00:45:09;80.63;;;28.50;;
3249;SDS011;1637;42.020;23.992;2023-02-12T00:47:35;52.17;;;22.73;;
3249;SDS011;1637;42.020;23.992;2023-02-12T00:50:02;52.50;;;22.63;;
3249;SDS011;1637;42.020;23.992;2023-02-12T00:52:29;87.40;;;29.57;;
3249;SDS011;1637;42.020;23.992;2023-02-12T00:54:56;62.87;;;23.90;;
3249;SDS011;1637;42.020;23.992;2023-02-12T00:57:23;77.93;;;21.67;;
3249;SDS011;1637;42.020;23.992;2023-02-12T00:59:50;55.03;;;24.10;;
3249;SDS011;1637;42.020;23.992;2023-02-12T01:02:18;66.07;;;24.33;;
3249;SDS011;1637;42.020;23.992;2023-02-12T01:04:45;54.13;;;22.17;;
3249;SDS011;1637;42.020;23.992;2023-02-12T01:07:11;54.17;;;19.73;;
3249;SDS011;1637;42.020;23.992;2023-02-12T01:09:38;55.60;;;21.43;;
3249;SDS011;1637;42.020;23.992;2023-02-12T01:12:05;41.00;;;18.70;;
3249;SDS011;1637;42.020;23.992;2023-02-12T01:14:32;72.20;;;23.23;;
3249;SDS011;1637;42.020;23.992;2023-02-12T01:16:59;65.93;;;26.00;;
3249;SDS011;1637;42.020;23.992;2023-02-12T01:19:27;67.63;;;24.80;;
3249;SDS011;1637;42.020;23.992;2023-02-12T01:21:54;71.57;;;27.80;;
3249;SDS011;1637;42.020;23.992;2023-02-12T01:24:21;67.77;;;25.20;;
3249;SDS011;1637;42.020;23.992;2023-02-12T01:26:48;77.37;;;25.80;;
3249;SDS011;1637;42.020;23.992;2023-02-12T01:29:15;83.63;;;30.97;;
3249;SDS011;1637;42.020;23.992;2023-02-12T01:31:41;73.47;;;26.20;;
3249;SDS011;1637;42.020;23.992;2023-02-12T01:34:08;71.37;;;26.33;;
3249;SDS011;1637;42.020;23.992;2023-02-12T01:36:38;79.00;;;27.40;;
3249;SDS011;1637;42.020;23.992;2023-02-12T01:39:05;73.30;;;27.63;;
3249;SDS011;1637;42.020;23.992;2023-02-12T01:41:34;87.23;;;30.83;;
3249;SDS011;1637;42.020;23.992;2023-02-12T01:44:06;68.30;;;28.47;;
3249;SDS011;1637;42.020;23.992;2023-02-12T01:46:35;75.13;;;31.97;;
3249;SDS011;1637;42.020;23.992;2023-02-12T01:49:02;93.80;;;33.40;;
3249;SDS011;1637;42.020;23.992;2023-02-12T01:51:32;97.83;;;34.57;;
3249;SDS011;1637;42.020;23.992;2023-02-12T01:54:04;101.43;;;39.00;;
3249;SDS011;1637;42.020;23.992;2023-02-12T01:56:33;91.57;;;30.70;;
3249;SDS011;1637;42.020;23.992;2023-02-12T01:59:00;86.63;;;30.07;;
3249;SDS011;1637;42.020;23.992;2023-02-12T02:01:28;77.70;;;28.50;;
3249;SDS011;1637;42.020;23.992;2023-02-12T02:04:03;61.97;;;23.07;;
3249;SDS011;1637;42.020;23.992;2023-02-12T02:06:32;59.63;;;22.77;;
3249;SDS011;1637;42.020;23.992;2023-02-12T02:09:03;50.50;;;22.20;;
3249;SDS011;1637;42.020;23.992;2023-02-12T02:11:31;52.07;;;23.60;;
3249;SDS011;1637;42.020;23.992;2023-02-12T02:14:15;53.77;;;22.27;;
3249;SDS011;1637;42.020;23.992;2023-02-12T02:20:05;58.00;;;24.53;;
3249;SDS011;1637;42.020;23.992;2023-02-12T02:23:00;64.33;;;25.50;;
3249;SDS011;1637;42.020;23.992;2023-02-12T02:25:41;60.60;;;22.97;;
3249;SDS011;1637;42.020;23.992;2023-02-12T02:31:31;69.67;;;26.37;;
3249;SDS011;1637;42.020;23.992;2023-02-12T02:34:07;87.03;;;31.10;;
3249;SDS011;1637;42.020;23.992;2023-02-12T02:36:40;106.23;;;35.30;;
3249;SDS011;1637;42.020;23.992;2023-02-12T02:39:14;100.80;;;32.67;;
3249;SDS011;1637;42.020;23.992;2023-02-12T02:41:45;97.23;;;34.03;;
3249;SDS011;1637;42.020;23.992;2023-02-12T02:44:17;76.93;;;29.37;;
3249;SDS011;1637;42.020;23.992;2023-02-12T02:46:51;86.07;;;29.63;;
3249;SDS011;1637;42.020;23.992;2023-02-12T02:49:20;67.07;;;25.67;;
3249;SDS011;1637;42.020;23.992;2023-02-12T02:51:50;70.17;;;27.50;;
3249;SDS011;1637;42.020;23.992;2023-02-12T02:54:21;72.47;;;28.00;;
3249;SDS011;1637;42.020;23.992;2023-02-12T02:56:51;68.83;;;24.83;;
3249;SDS011;1637;42.020;23.992;2023-02-12T02:59:25;72.80;;;23.47;;
3249;SDS011;1637;42.020;23.992;2023-02-12T03:02:00;63.03;;;25.77;;
3249;SDS011;1637;42.020;23.992;2023-02-12T03:04:30;69.73;;;26.30;;
3249;SDS011;1637;42.020;23.992;2023-02-12T03:07:02;71.17;;;25.73;;
3249;SDS011;1637;42.020;23.992;2023-02-12T03:09:33;78.20;;;26.47;;
3249;SDS011;1637;42.020;23.992;2023-02-12T03:12:05;62.20;;;25.03;;
3249;SDS011;1637;42.020;23.992;2023-02-12T03:14:38;78.03;;;26.40;;
3249;SDS011;1637;42.020;23.992;2023-02-12T03:17:09;68.20;;;25.17;;
3249;SDS011;1637;42.020;23.992;2023-02-12T03:19:42;62.40;;;27.17;;
3249;SDS011;1637;42.020;23.992;2023-02-12T03:22:13;66.73;;;24.10;;
3249;SDS011;1637;42.020;23.992;2023-02-12T03:24:44;76.60;;;27.13;;
3249;SDS011;1637;42.020;23.992;2023-02-12T03:27:16;71.00;;;27.53;;
3249;SDS011;1637;42.020;23.992;2023-02-12T03:29:45;66.40;;;26.20;;
3249;SDS011;1637;42.020;23.992;2023-02-12T03:32:17;78.03;;;26.70;;
3249;SDS011;1637;42.020;23.992;2023-02-12T03:34:50;64.83;;;26.90;;
3249;SDS011;1637;42.020;23.992;2023-02-12T03:37:24;91.87;;;28.07;;
3249;SDS011;1637;42.020;23.992;2023-02-12T03:39:55;53.13;;;22.50;;
3249;SDS011;1637;42.020;23.992;2023-02-12T03:42:29;66.30;;;21.67;;
3249;SDS011;1637;42.020;23.992;2023-02-12T03:45:00;60.07;;;22.07;;
3249;SDS011;1637;42.020;23.992;2023-02-12T03:47:38;55.93;;;21.70;;
3249;SDS011;1637;42.020;23.992;2023-02-12T03:50:10;47.63;;;21.90;;
3249;SDS011;1637;42.020;23.992;2023-02-12T03:52:42;59.07;;;21.77;;
3249;SDS011;1637;42.020;23.992;2023-02-12T03:55:10;45.07;;;19.70;;
3249;SDS011;1637;42.020;23.992;2023-02-12T03:57:39;43.03;;;19.00;;
3249;SDS011;1637;42.020;23.992;2023-02-12T04:00:09;49.07;;;17.10;;
3249;SDS011;1637;42.020;23.992;2023-02-12T04:02:44;60.40;;;21.20;;
3249;SDS011;1637;42.020;23.992;2023-02-12T04:05:16;55.63;;;20.00;;
3249;SDS011;1637;42.020;23.992;2023-02-12T04:07:44;93.70;;;32.40;;
3249;SDS011;1637;42.020;23.992;2023-02-12T04:10:12;73.00;;;28.93;;
3249;SDS011;1637;42.020;23.992;2023-02-12T04:12:42;27.00;;;12.97;;
3249;SDS011;1637;42.020;23.992;2023-02-12T04:15:25;53.30;;;17.67;;
3249;SDS011;1637;42.020;23.992;2023-02-12T04:18:05;58.40;;;23.93;;
3249;SDS011;1637;42.020;23.992;2023-02-12T04:20:38;63.43;;;25.60;;
3249;SDS011;1637;42.020;23.992;2023-02-12T04:23:11;141.07;;;42.50;;
3249;SDS011;1637;42.020;23.992;2023-02-12T04:25:51;104.60;;;35.63;;
3249;SDS011;1637;42.020;23.992;2023-02-12T04:28:26;170.33;;;58.83;;
3249;SDS011;1637;42.020;23.992;2023-02-12T04:31:02;114.03;;;38.97;;
3249;SDS011;1637;42.020;23.992;2023-02-12T04:33:39;54.23;;;22.73;;
3249;SDS011;1637;42.020;23.992;2023-02-12T04:36:12;55.57;;;21.27;;
3249;SDS011;1637;42.020;23.992;2023-02-12T04:38:43;54.83;;;22.83;;
3249;SDS011;1637;42.020;23.992;2023-02-12T04:41:16;222.87;;;63.20;;
3249;SDS011;1637;42.020;23.992;2023-02-12T04:43:43;74.33;;;30.27;;
3249;SDS011;1637;42.020;23.992;2023-02-12T04:46:09;52.70;;;20.83;;
3249;SDS011;1637;42.020;23.992;2023-02-12T04:48:40;69.20;;;23.73;;
3249;SDS011;1637;42.020;23.992;2023-02-12T04:51:16;57.50;;;24.23;;
3249;SDS011;1637;42.020;23.992;2023-02-12T04:53:42;38.40;;;18.67;;
3249;SDS011;1637;42.020;23.992;2023-02-12T04:56:10;50.80;;;20.33;;
3249;SDS011;1637;42.020;23.992;2023-02-12T04:58:37;29.13;;;13.70;;
3249;SDS011;1637;42.020;23.992;2023-02-12T05:01:04;51.27;;;21.47;;
3249;SDS011;1637;42.020;23.992;2023-02-12T05:03:31;87.70;;;33.60;;
3249;SDS011;1637;42.020;23.992;2023-02-12T05:06:02;83.00;;;30.33;;
3249;SDS011;1637;42.020;23.992;2023-02-12T05:08:29;47.43;;;19.37;;
3249;SDS011;1637;42.020;23.992;2023-02-12T05:10:56;69.83;;;24.70;;
3249;SDS011;1637;42.020;23.992;2023-02-12T05:13:28;58.37;;;25.20;;
3249;SDS011;1637;42.020;23.992;2023-02-12T05:15:54;52.97;;;22.30;;
3249;SDS011;1637;42.020;23.992;2023-02-12T05:18:21;63.67;;;26.47;;
3249;SDS011;1637;42.020;23.992;2023-02-12T05:20:53;69.07;;;27.20;;
3249;SDS011;1637;42.020;23.992;2023-02-12T05:23:22;73.53;;;26.27;;
3249;SDS011;1637;42.020;23.992;2023-02-12T05:25:51;63.93;;;24.47;;
3249;SDS011;1637;42.020;23.992;2023-02-12T05:28:17;60.63;;;26.07;;
3249;SDS011;1637;42.020;23.992;2023-02-12T05:30:44;90.43;;;34.63;;
3249;SDS011;1637;42.020;23.992;2023-02-12T05:33:11;87.47;;;35.93;;
3249;SDS011;1637;42.020;23.992;2023-02-12T05:35:38;103.50;;;40.33;;
3249;SDS011;1637;42.020;23.992;2023-02-12T05:38:05;95.70;;;40.80;;
3249;SDS011;1637;42.020;23.992;2023-02-12T05:40:33;124.93;;;42.00;;
3249;SDS011;1637;42.020;23.992;2023-02-12T05:43:00;90.00;;;34.50;;
3249;SDS011;1637;42.020;23.992;2023-02-12T05:45:27;61.77;;;25.40;;
3249;SDS011;1637;42.020;23.992;2023-02-12T05:47:54;97.10;;;36.83;;
3249;SDS011;1637;42.020;23.992;2023-02-12T05:50:22;79.00;;;30.50;;
3249;SDS011;1637;42.020;23.992;2023-02-12T05:52:48;149.77;;;54.57;;
3249;SDS011;1637;42.020;23.992;2023-02-12T05:55:15;73.40;;;29.87;;
3249;SDS011;1637;42.020;23.992;2023-02-12T05:57:44;68.87;;;25.70;;
3249;SDS011;1637;42.020;23.992;2023-02-12T06:00:11;69.07;;;28.43;;
3249;SDS011;1637;42.020;23.992;2023-02-12T06:02:39;56.87;;;24.33;;
3249;SDS011;1637;42.020;23.992;2023-02-12T06:05:06;57.43;;;22.70;;
3249;SDS011;1637;42.020;23.992;2023-02-12T06:07:33;76.27;;;28.80;;
3249;SDS011;1637;42.020;23.992;2023-02-12T06:10:00;183.27;;;49.80;;
3249;SDS011;1637;42.020;23.992;2023-02-12T06:12:26;130.87;;;42.37;;
3249;SDS011;1637;42.020;23.992;2023-02-12T06:14:55;138.13;;;46.20;;
3249;SDS011;1637;42.020;23.992;2023-02-12T06:17:21;158.17;;;45.13;;
3249;SDS011;1637;42.020;23.992;2023-02-12T06:19:48;105.13;;;40.60;;
3249;SDS011;1637;42.020;23.992;2023-02-12T06:22:15;123.27;;;41.77;;
3249;SDS011;1637;42.020;23.992;2023-02-12T06:24:42;150.33;;;47.10;;
3249;SDS011;1637;42.020;23.992;2023-02-12T06:27:10;137.00;;;40.87;;
3249;SDS011;1637;42.020;23.992;2023-02-12T06:29:37;122.83;;;37.97;;
3249;SDS011;1637;42.020;23.992;2023-02-12T06:32:05;107.80;;;37.03;;
3249;SDS011;1637;42.020;23.992;2023-02-12T06:34:32;117.27;;;39.43;;
3249;SDS011;1637;42.020;23.992;2023-02-12T06:36:59;114.30;;;40.57;;
3249;SDS011;1637;42.020;23.992;2023-02-12T06:39:26;153.03;;;51.90;;
3249;SDS011;1637;42.020;23.992;2023-02-12T06:41:53;141.77;;;54.53;;
3249;SDS011;1637;42.020;23.992;2023-02-12T06:44:19;141.97;;;52.47;;
3249;SDS011;1637;42.020;23.992;2023-02-12T06:46:46;137.33;;;51.50;;
3249;SDS011;1637;42.020;23.992;2023-02-12T06:49:14;147.93;;;52.77;;
3249;SDS011;1637;42.020;23.992;2023-02-12T06:51:41;155.60;;;54.60;;
3249;SDS011;1637;42.020;23.992;2023-02-12T06:54:11;172.73;;;51.20;;
3249;SDS011;1637;42.020;23.992;2023-02-12T06:56:38;316.33;;;100.53;;
3249;SDS011;1637;42.020;23.992;2023-02-12T06:59:05;174.33;;;71.53;;
3249;SDS011;1637;42.020;23.992;2023-02-12T07:01:32;191.83;;;65.67;;
3249;SDS011;1637;42.020;23.992;2023-02-12T07:03:59;209.47;;;75.30;;
3249;SDS011;1637;42.020;23.992;2023-02-12T07:06:29;199.27;;;73.57;;
3249;SDS011;1637;42.020;23.992;2023-02-12T07:08:58;177.23;;;69.27;;
3249;SDS011;1637;42.020;23.992;2023-02-12T07:11:28;196.47;;;75.10;;
3249;SDS011;1637;42.020;23.992;2023-02-12T07:13:56;152.13;;;57.93;;
3249;SDS011;1637;42.020;23.992;2023-02-12T07:16:23;159.40;;;64.27;;
3249;SDS011;1637;42.020;23.992;2023-02-12T07:18:50;189.50;;;69.60;;
3249;SDS011;1637;42.020;23.992;2023-02-12T07:21:17;260.43;;;92.40;;
3249;SDS011;1637;42.020;23.992;2023-02-12T07:23:46;262.70;;;88.90;;
3249;SDS011;1637;42.020;23.992;2023-02-12T07:26:14;247.00;;;94.07;;
3249;SDS011;1637;42.020;23.992;2023-02-12T07:28:41;220.17;;;83.20;;
3249;SDS011;1637;42.020;23.992;2023-02-12T07:31:09;226.93;;;78.00;;
3249;SDS011;1637;42.020;23.992;2023-02-12T07:33:37;207.57;;;78.27;;
3249;SDS011;1637;42.020;23.992;2023-02-12T07:36:05;202.90;;;81.27;;
3249;SDS011;1637;42.020;23.992;2023-02-12T07:38:34;238.47;;;85.80;;
3249;SDS011;1637;42.020;23.992;2023-02-12T07:41:08;170.07;;;65.57;;
3249;SDS011;1637;42.020;23.992;2023-02-12T07:43:37;144.10;;;52.73;;
3249;SDS011;1637;42.020;23.992;2023-02-12T07:46:08;261.00;;;111.20;;
3249;SDS011;1637;42.020;23.992;2023-02-12T07:48:36;230.97;;;83.37;;
3249;SDS011;1637;42.020;23.992;2023-02-12T07:51:04;204.60;;;75.47;;
3249;SDS011;1637;42.020;23.992;2023-02-12T07:53:32;164.30;;;72.53;;
3249;SDS011;1637;42.020;23.992;2023-02-12T07:56:06;150.20;;;54.97;;
3249;SDS011;1637;42.020;23.992;2023-02-12T07:58:36;190.70;;;71.63;;
3249;SDS011;1637;42.020;23.992;2023-02-12T08:01:10;178.30;;;75.23;;
3249;SDS011;1637;42.020;23.992;2023-02-12T08:03:38;192.13;;;75.90;;
3249;SDS011;1637;42.020;23.992;2023-02-12T08:06:08;217.40;;;90.10;;
3249;SDS011;1637;42.020;23.992;2023-02-12T08:08:36;212.97;;;82.33;;
3249;SDS011;1637;42.020;23.992;2023-02-12T08:11:04;265.27;;;87.93;;
3249;SDS011;1637;42.020;23.992;2023-02-12T08:13:33;173.83;;;67.73;;
3249;SDS011;1637;42.020;23.992;2023-02-12T08:16:00;176.07;;;67.63;;
3249;SDS011;1637;42.020;23.992;2023-02-12T08:18:29;157.40;;;61.77;;
3249;SDS011;1637;42.020;23.992;2023-02-12T08:21:00;182.50;;;71.90;;
3249;SDS011;1637;42.020;23.992;2023-02-12T08:23:28;147.33;;;54.03;;
3249;SDS011;1637;42.020;23.992;2023-02-12T08:26:03;142.30;;;56.40;;
3249;SDS011;1637;42.020;23.992;2023-02-12T08:28:31;217.67;;;86.47;;
3249;SDS011;1637;42.020;23.992;2023-02-12T08:30:59;145.70;;;54.73;;
3249;SDS011;1637;42.020;23.992;2023-02-12T08:33:26;139.27;;;54.50;;
3249;SDS011;1637;42.020;23.992;2023-02-12T08:35:59;168.60;;;62.77;;
3249;SDS011;1637;42.020;23.992;2023-02-12T08:38:26;263.60;;;94.43;;
3249;SDS011;1637;42.020;23.992;2023-02-12T08:40:53;207.07;;;83.87;;
3249;SDS011;1637;42.020;23.992;2023-02-12T08:43:20;169.77;;;68.87;;
3249;SDS011;1637;42.020;23.992;2023-02-12T08:45:48;168.47;;;59.83;;
3249;SDS011;1637;42.020;23.992;2023-02-12T08:48:15;117.90;;;48.00;;
3249;SDS011;1637;42.020;23.992;2023-02-12T08:50:44;91.63;;;33.10;;
3249;SDS011;1637;42.020;23.992;2023-02-12T08:53:11;78.97;;;34.80;;
3249;SDS011;1637;42.020;23.992;2023-02-12T08:55:38;71.77;;;29.93;;
3249;SDS011;1637;42.020;23.992;2023-02-12T08:58:05;99.63;;;37.17;;
3249;SDS011;1637;42.020;23.992;2023-02-12T09:00:32;71.27;;;31.20;;
3249;SDS011;1637;42.020;23.992;2023-02-12T09:03:00;59.13;;;26.77;;
3249;SDS011;1637;42.020;23.992;2023-02-12T09:05:27;57.63;;;25.90;;
3249;SDS011;1637;42.020;23.992;2023-02-12T09:07:53;198.53;;;60.60;;
3249;SDS011;1637;42.020;23.992;2023-02-12T09:10:20;147.73;;;50.23;;
3249;SDS011;1637;42.020;23.992;2023-02-12T09:12:47;84.77;;;31.90;;
3249;SDS011;1637;42.020;23.992;2023-02-12T09:15:14;42.17;;;20.50;;
3249;SDS011;1637;42.020;23.992;2023-02-12T09:17:41;33.80;;;15.63;;
3249;SDS011;1637;42.020;23.992;2023-02-12T09:20:09;50.63;;;19.83;;
3249;SDS011;1637;42.020;23.992;2023-02-12T09:22:37;49.47;;;23.47;;
3249;SDS011;1637;42.020;23.992;2023-02-12T09:25:04;42.83;;;17.87;;
3249;SDS011;1637;42.020;23.992;2023-02-12T09:27:31;33.77;;;16.43;;
3249;SDS011;1637;42.020;23.992;2023-02-12T09:29:58;59.93;;;18.63;;
3249;SDS011;1637;42.020;23.992;2023-02-12T09:32:24;25.73;;;12.40;;
3249;SDS011;1637;42.020;23.992;2023-02-12T09:34:51;24.87;;;11.27;;
3249;SDS011;1637;42.020;23.992;2023-02-12T09:37:19;30.33;;;12.10;;
3249;SDS011;1637;42.020;23.992;2023-02-12T09:39:46;29.80;;;14.27;;
3249;SDS011;1637;42.020;23.992;2023-02-12T09:42:25;34.13;;;14.07;;
3249;SDS011;1637;42.020;23.992;2023-02-12T09:45:05;28.50;;;14.27;;
3249;SDS011;1637;42.020;23.992;2023-02-12T09:47:38;34.50;;;14.83;;
3249;SDS011;1637;42.020;23.992;2023-02-12T09:50:17;38.70;;;12.87;;
3249;SDS011;1637;42.020;23.992;2023-02-12T09:52:58;33.20;;;14.50;;
3249;SDS011;1637;42.020;23.992;2023-02-12T09:55:26;73.63;;;28.60;;
3249;SDS011;1637;42.020;23.992;2023-02-12T09:57:55;81.17;;;31.57;;
3249;SDS011;1637;42.020;23.992;2023-02-12T10:00:24;87.73;;;35.40;;
3249;SDS011;1637;42.020;23.992;2023-02-12T10:02:55;73.73;;;29.03;;
3249;SDS011;1637;42.020;23.992;2023-02-12T10:05:26;78.80;;;28.20;;
3249;SDS011;1637;42.020;23.992;2023-02-12T10:10:59;69.10;;;28.93;;
3249;SDS011;1637;42.020;23.992;2023-02-12T10:13:35;120.93;;;47.90;;
3249;SDS011;1637;42.020;23.992;2023-02-12T10:16:13;86.17;;;37.27;;
3249;SDS011;1637;42.020;23.992;2023-02-12T10:18:53;62.37;;;26.63;;
3249;SDS011;1637;42.020;23.992;2023-02-12T10:21:38;55.87;;;24.73;;
3249;SDS011;1637;42.020;23.992;2023-02-12T10:24:19;49.13;;;22.90;;
3249;SDS011;1637;42.020;23.992;2023-02-12T10:26:59;36.63;;;17.23;;
3249;SDS011;1637;42.020;23.992;2023-02-12T10:29:31;37.70;;;16.17;;
3249;SDS011;1637;42.020;23.992;2023-02-12T10:32:00;36.27;;;13.80;;
3249;SDS011;1637;42.020;23.992;2023-02-12T10:34:32;25.40;;;12.10;;
3249;SDS011;1637;42.020;23.992;2023-02-12T10:37:08;34.03;;;14.53;;
3249;SDS011;1637;42.020;23.992;2023-02-12T10:39:42;19.57;;;9.87;;
3249;SDS011;1637;42.020;23.992;2023-02-12T10:42:15;19.07;;;10.10;;
3249;SDS011;1637;42.020;23.992;2023-02-12T10:44:45;21.33;;;8.27;;
3249;SDS011;1637;42.020;23.992;2023-02-12T10:47:12;25.00;;;9.77;;
3249;SDS011;1637;42.020;23.992;2023-02-12T10:49:43;38.47;;;15.93;;
3249;SDS011;1637;42.020;23.992;2023-02-12T10:52:13;63.97;;;22.30;;
3249;SDS011;1637;42.020;23.992;2023-02-12T10:54:49;17.50;;;7.20;;
3249;SDS011;1637;42.020;23.992;2023-02-12T10:57:17;18.23;;;8.27;;
3249;SDS011;1637;42.020;23.992;2023-02-12T10:59:46;23.10;;;8.70;;
3249;SDS011;1637;42.020;23.992;2023-02-12T11:02:19;16.07;;;8.00;;
3249;SDS011;1637;42.020;23.992;2023-02-12T11:04:48;16.20;;;7.10;;
3249;SDS011;1637;42.020;23.992;2023-02-12T11:07:16;18.80;;;9.50;;
3249;SDS011;1637;42.020;23.992;2023-02-12T11:09:43;19.30;;;8.67;;
3249;SDS011;1637;42.020;23.992;2023-02-12T11:12:18;12.87;;;7.70;;
3249;SDS011;1637;42.020;23.992;2023-02-12T11:14:49;17.10;;;8.00;;
3249;SDS011;1637;42.020;23.992;2023-02-12T11:17:19;15.93;;;7.33;;
3249;SDS011;1637;42.020;23.992;2023-02-12T11:20:00;14.73;;;7.23;;
3249;SDS011;1637;42.020;23.992;2023-02-12T11:22:29;14.23;;;6.77;;
3249;SDS011;1637;42.020;23.992;2023-02-12T11:24:58;14.40;;;7.63;;
3249;SDS011;1637;42.020;23.992;2023-02-12T11:27:29;9.73;;;5.87;;
3249;SDS011;1637;42.020;23.992;2023-02-12T11:30:15;15.53;;;7.17;;
3249;SDS011;1637;42.020;23.992;2023-02-12T11:32:43;10.77;;;6.47;;
3249;SDS011;1637;42.020;23.992;2023-02-12T11:35:12;9.17;;;4.30;;
3249;SDS011;1637;42.020;23.992;2023-02-12T11:37:42;22.00;;;9.03;;
3249;SDS011;1637;42.020;23.992;2023-02-12T11:40:15;8.43;;;4.63;;
3249;SDS011;1637;42.020;23.992;2023-02-12T11:42:48;12.90;;;6.97;;
3249;SDS011;1637;42.020;23.992;2023-02-12T11:45:19;11.53;;;6.20;;
3249;SDS011;1637;42.020;23.992;2023-02-12T11:47:49;8.37;;;5.20;;
3249;SDS011;1637;42.020;23.992;2023-02-12T11:50:20;9.87;;;5.67;;
3249;SDS011;1637;42.020;23.992;2023-02-12T11:52:51;9.23;;;5.73;;
3249;SDS011;1637;42.020;23.992;2023-02-12T11:55:21;15.70;;;5.77;;
3249;SDS011;1637;42.020;23.992;2023-02-12T11:57:52;26.10;;;8.23;;
3249;SDS011;1637;42.020;23.992;2023-02-12T12:00:27;7.87;;;4.13;;
3249;SDS011;1637;42.020;23.992;2023-02-12T12:02:59;32.03;;;14.43;;
3249;SDS011;1637;42.020;23.992;2023-02-12T12:05:47;15.07;;;8.17;;
3249;SDS011;1637;42.020;23.992;2023-02-12T12:08:19;17.27;;;10.07;;
3249;SDS011;1637;42.020;23.992;2023-02-12T12:10:53;23.50;;;10.20;;
3249;SDS011;1637;42.020;23.992;2023-02-12T12:13:29;11.17;;;6.17;;
3249;SDS011;1637;42.020;23.992;2023-02-12T12:16:03;9.80;;;5.50;;
3249;SDS011;1637;42.020;23.992;2023-02-12T12:18:53;24.93;;;6.93;;
3249;SDS011;1637;42.020;23.992;2023-02-12T12:21:44;8.63;;;4.80;;
3249;SDS011;1637;42.020;23.992;2023-02-12T12:24:19;19.50;;;9.27;;
3249;SDS011;1637;42.020;23.992;2023-02-12T12:26:52;19.33;;;8.70;;
3249;SDS011;1637;42.020;23.992;2023-02-12T12:29:32;36.40;;;16.90;;
3249;SDS011;1637;42.020;23.992;2023-02-12T12:32:11;9.27;;;7.20;;
3249;SDS011;1637;42.020;23.992;2023-02-12T12:34:43;17.97;;;7.90;;
3249;SDS011;1637;42.020;23.992;2023-02-12T12:37:16;5.43;;;4.13;;
3249;SDS011;1637;42.020;23.992;2023-02-12T12:40:02;49.50;;;7.80;;
3249;SDS011;1637;42.020;23.992;2023-02-12T12:45:41;13.70;;;6.17;;
3249;SDS011;1637;42.020;23.992;2023-02-12T12:48:25;12.07;;;5.83;;
3249;SDS011;1637;42.020;23.992;2023-02-12T12:51:08;8.07;;;5.47;;
3249;SDS011;1637;42.020;23.992;2023-02-12T12:53:49;36.83;;;16.83;;
3249;SDS011;1637;42.020;23.992;2023-02-12T12:56:28;11.87;;;7.60;;
3249;SDS011;1637;42.020;23.992;2023-02-12T12:59:16;15.53;;;8.60;;
3249;SDS011;1637;42.020;23.992;2023-02-12T13:05:20;12.67;;;6.80;;
3249;SDS011;1637;42.020;23.992;2023-02-12T13:08:02;6.77;;;4.17;;
3249;SDS011;1637;42.020;23.992;2023-02-12T13:10:42;15.87;;;8.43;;
3249;SDS011;1637;42.020;23.992;2023-02-12T13:13:19;7.87;;;5.00;;
3249;SDS011;1637;42.020;23.992;2023-02-12T13:15:54;26.90;;;9.80;;
3249;SDS011;1637;42.020;23.992;2023-02-12T13:18:28;11.80;;;6.27;;
3249;SDS011;1637;42.020;23.992;2023-02-12T13:21:07;16.60;;;7.13;;
3249;SDS011;1637;42.020;23.992;2023-02-12T13:23:40;19.30;;;10.03;;
3249;SDS011;1637;42.020;23.992;2023-02-12T13:26:13;8.83;;;4.50;;
3249;SDS011;1637;42.020;23.992;2023-02-12T13:28:45;7.13;;;4.43;;
3249;SDS011;1637;42.020;23.992;2023-02-12T13:31:19;5.87;;;4.03;;
3249;SDS011;1637;42.020;23.992;2023-02-12T13:33:48;11.70;;;6.10;;
3249;SDS011;1637;42.020;23.992;2023-02-12T13:36:19;22.83;;;9.20;;
3249;SDS011;1637;42.020;23.992;2023-02-12T13:38:47;18.30;;;9.83;;
3249;SDS011;1637;42.020;23.992;2023-02-12T13:41:17;7.33;;;4.53;;
3249;SDS011;1637;42.020;23.992;2023-02-12T13:43:52;6.10;;;4.10;;
3249;SDS011;1637;42.020;23.992;2023-02-12T13:46:28;8.87;;;5.23;;
3249;SDS011;1637;42.020;23.992;2023-02-12T13:49:07;50.50;;;19.67;;
3249;SDS011;1637;42.020;23.992;2023-02-12T13:51:44;25.13;;;10.77;;
3249;SDS011;1637;42.020;23.992;2023-02-12T13:54:16;11.33;;;5.03;;
3249;SDS011;1637;42.020;23.992;2023-02-12T13:56:50;12.27;;;6.47;;
3249;SDS011;1637;42.020;23.992;2023-02-12T14:02:23;8.27;;;4.23;;
3249;SDS011;1637;42.020;23.992;2023-02-12T14:05:13;7.83;;;4.13;;
3249;SDS011;1637;42.020;23.992;2023-02-12T14:07:53;6.07;;;4.47;;
3249;SDS011;1637;42.020;23.992;2023-02-12T14:10:26;8.70;;;4.90;;
3249;SDS011;1637;42.020;23.992;2023-02-12T14:12:56;9.57;;;6.67;;
3249;SDS011;1637;42.020;23.992;2023-02-12T14:15:35;29.97;;;16.23;;
3249;SDS011;1637;42.020;23.992;2023-02-12T14:18:05;12.80;;;8.43;;
3249;SDS011;1637;42.020;23.992;2023-02-12T14:20:46;10.80;;;6.70;;
3249;SDS011;1637;42.020;23.992;2023-02-12T14:23:24;8.40;;;4.40;;
3249;SDS011;1637;42.020;23.992;2023-02-12T14:25:59;17.30;;;11.27;;
3249;SDS011;1637;42.020;23.992;2023-02-12T14:28:31;11.80;;;7.20;;
3249;SDS011;1637;42.020;23.992;2023-02-12T14:37:17;22.93;;;14.20;;
3249;SDS011;1637;42.020;23.992;2023-02-12T14:43:26;10.47;;;6.13;;
3249;SDS011;1637;42.020;23.992;2023-02-12T14:49:18;12.90;;;7.20;;
3249;SDS011;1637;42.020;23.992;2023-02-12T14:51:52;22.03;;;11.40;;
3249;SDS011;1637;42.020;23.992;2023-02-12T14:54:25;18.27;;;7.07;;
3249;SDS011;1637;42.020;23.992;2023-02-12T14:56:58;27.93;;;13.73;;
3249;SDS011;1637;42.020;23.992;2023-02-12T14:59:29;19.57;;;8.13;;
3249;SDS011;1637;42.020;23.992;2023-02-12T15:01:59;78.80;;;29.80;;
3249;SDS011;1637;42.020;23.992;2023-02-12T15:04:29;84.57;;;31.50;;
3249;SDS011;1637;42.020;23.992;2023-02-12T15:07:02;36.30;;;17.23;;
3249;SDS011;1637;42.020;23.992;2023-02-12T15:09:35;88.43;;;31.53;;
3249;SDS011;1637;42.020;23.992;2023-02-12T15:12:08;62.67;;;22.40;;
3249;SDS011;1637;42.020;23.992;2023-02-12T15:14:44;44.47;;;20.37;;
3249;SDS011;1637;42.020;23.992;2023-02-12T15:17:16;45.67;;;22.80;;
3249;SDS011;1637;42.020;23.992;2023-02-12T15:19:47;97.67;;;44.83;;
3249;SDS011;1637;42.020;23.992;2023-02-12T15:22:21;72.93;;;33.60;;
3249;SDS011;1637;42.020;23.992;2023-02-12T15:24:50;72.47;;;29.87;;
3249;SDS011;1637;42.020;23.992;2023-02-12T15:27:17;94.97;;;43.23;;
3249;SDS011;1637;42.020;23.992;2023-02-12T15:29:48;70.77;;;29.47;;